Weather at 187th Avenue Landing Strip [CLOSED]

Public forecast

Using degrees Fahrenheit for public forecast. Weather courtesy of forecast.io.

Closest aviation weather report (METAR) to 187th Avenue Landing Strip

Closest report is Phoenix Goodyear Airport, 11.6 nm (21.6 km) NNE. Retrieved 2021/06/25 02:47 UTC (52 minutes ago):

KGYR 250247Z 33011KT 10SM FEW180 37/13 A2977

Closest aviation forecast (TAF) to 187th Avenue Landing Strip

Forecast is more than 6 hours old.

Closest forecast is Luke Air Force Base, 18.1 nm (33.5 km) N. Retrieved 2021/06/24 21:18 UTC (6 hours ago):

TAF ETNG 242000Z 2421/2512 27004KT 9999 SCT040 TAF KLUF 242000Z 2420/2602 20012KT 9999 FEW150 QNH2977INS TEMPO 2420/2501 23012G20KT BECMG 2502/2503 VRB06KT 9999 FEW150 SCT250 QNH2976INS BECMG 2519/2520 21012G20KT 9999 SKC QNH2968INS TX39/2423Z TN27/2512Z